Time;durP1;ratioP1;P1;durP2;ratioP2;P2;SDS_P1;SDS_P2;PMS_P1;PMS_P2;Temp;Humidity;BMP_temperature;BMP_pressure;BME280_temperature;BME280_humidity;BME280_pressure;Samples;Min_cycle;Max_cycle;Signal;HPM_P1;HPM_P2
2021/07/12 00:00:49;;;;;;;3.95;1.92;;;;;;;;;;5091275;28;20036;-70
2021/07/12 00:03:15;;;;;;;4.70;2.13;;;;;;;;;;5091127;28;20024;-70
2021/07/12 00:05:41;;;;;;;4.38;2.50;;;;;;;;;;5072860;28;20024;-69
2021/07/12 00:08:10;;;;;;;5.72;1.90;;;;;;;;;;5090908;28;20476;-70
2021/07/12 00:10:37;;;;;;;3.85;1.90;;;;;;;;;;5090899;28;20117;-69
2021/07/12 00:13:03;;;;;;;5.70;2.20;;;;;;;;;;5091089;28;20383;-70
2021/07/12 00:15:30;;;;;;;4.50;1.83;;;;;;;;;;5091282;28;20024;-70
2021/07/12 00:17:56;;;;;;;3.90;2.45;;;;;;;;;;5090914;28;20384;-70
2021/07/12 00:20:22;;;;;;;4.45;2.20;;;;;;;;;;5090771;28;20036;-69
2021/07/12 00:22:50;;;;;;;3.35;2.10;;;;;;;;;;5072996;28;20020;-70
2021/07/12 00:25:17;;;;;;;5.55;2.30;;;;;;;;;;5091039;28;20404;-69
2021/07/12 00:27:43;;;;;;;5.45;2.20;;;;;;;;;;5090984;28;20526;-70
2021/07/12 00:30:11;;;;;;;5.28;2.30;;;;;;;;;;5091048;28;20025;-68
2021/07/12 00:32:37;;;;;;;5.53;2.25;;;;;;;;;;5072607;28;20032;-70
2021/07/12 00:35:05;;;;;;;6.05;2.17;;;;;;;;;;5090609;28;20051;-70
2021/07/12 00:37:31;;;;;;;5.22;2.50;;;;;;;;;;5090747;28;20051;-68
2021/07/12 00:39:57;;;;;;;6.75;2.10;;;;;;;;;;5090720;28;20126;-69
2021/07/12 00:42:23;;;;;;;6.38;2.28;;;;;;;;;;5094316;28;20093;-70
2021/07/12 00:44:49;;;;;;;5.43;2.83;;;;;;;;;;5076370;28;20024;-68
2021/07/12 00:47:15;;;;;;;4.05;2.00;;;;;;;;;;5094316;28;20020;-69
2021/07/12 00:49:41;;;;;;;6.07;2.45;;;;;;;;;;5094265;28;20027;-70
2021/07/12 00:52:07;;;;;;;3.83;2.17;;;;;;;;;;5094216;28;20102;-70
2021/07/12 00:54:33;;;;;;;5.25;2.58;;;;;;;;;;5094177;28;20016;-70
2021/07/12 00:57:00;;;;;;;5.22;2.50;;;;;;;;;;5094254;28;20305;-69
2021/07/12 00:59:27;;;;;;;5.43;2.53;;;;;;;;;;5094225;28;20456;-70
2021/07/12 01:01:53;;;;;;;5.40;2.53;;;;;;;;;;5093930;28;20503;-70
2021/07/12 01:04:20;;;;;;;5.13;2.20;;;;;;;;;;5076050;28;20028;-70
2021/07/12 01:06:46;;;;;;;4.20;2.25;;;;;;;;;;5094089;28;20012;-69
2021/07/12 01:09:12;;;;;;;4.93;2.80;;;;;;;;;;5078629;28;20016;-69
2021/07/12 01:11:44;;;;;;;4.15;2.03;;;;;;;;;;5073713;28;20017;-70
2021/07/12 01:14:10;;;;;;;4.82;2.30;;;;;;;;;;5073496;28;20071;-70
2021/07/12 01:16:36;;;;;;;4.72;2.70;;;;;;;;;;5072330;28;20032;-69
2021/07/12 01:19:17;;;;;;;4.43;2.20;;;;;;;;;;5072304;28;20043;-69
2021/07/12 01:21:50;;;;;;;5.88;2.50;;;;;;;;;;5072120;28;20043;-69
2021/07/12 01:24:16;;;;;;;;;;;;;;;;;;5073778;28;20073;-69
2021/07/12 01:26:44;;;;;;;7.82;2.50;;;;;;;;;;5073345;28;19942;-70
2021/07/12 01:29:14;;;;;;;6.57;2.83;;;;;;;;;;5073287;28;20029;-68
2021/07/12 01:31:59;;;;;;;4.50;2.25;;;;;;;;;;5071872;28;20370;-70
2021/07/12 01:34:31;;;;;;;5.20;2.67;;;;;;;;;;5073162;28;20024;-70
2021/07/12 01:37:19;;;;;;;4.80;2.80;;;;;;;;;;5073247;28;20025;-70
2021/07/12 01:39:50;;;;;;;7.20;2.83;;;;;;;;;;5073011;28;20070;-70
2021/07/12 01:42:39;;;;;;;4.73;2.63;;;;;;;;;;5073259;28;20028;-70
2021/07/12 01:45:11;;;;;;;4.85;2.60;;;;;;;;;;5067408;28;20075;-70
2021/07/12 01:47:37;;;;;;;6.78;2.80;;;;;;;;;;5073022;28;20020;-70
2021/07/12 01:50:06;;;;;;;5.32;2.90;;;;;;;;;;5071371;28;20382;-68
2021/07/12 01:53:10;;;;;;;4.60;2.55;;;;;;;;;;5071742;28;20035;-70
2021/07/12 01:55:55;;;;;;;3.75;2.22;;;;;;;;;;5030502;28;20022;-69
2021/07/12 01:58:28;;;;;;;4.97;2.70;;;;;;;;;;5030264;28;20051;-70
2021/07/12 02:00:54;;;;;;;6.40;2.50;;;;;;;;;;5057496;28;20032;-70
2021/07/12 02:03:21;;;;;;;5.03;2.60;;;;;;;;;;5072701;28;20020;-69
2021/07/12 02:05:48;;;;;;;4.80;2.55;;;;;;;;;;5072597;28;20074;-70
2021/07/12 02:08:18;;;;;;;5.32;2.80;;;;;;;;;;5072620;28;20178;-70
2021/07/12 02:10:45;;;;;;;5.35;2.67;;;;;;;;;;5071282;28;20020;-69
2021/07/12 02:13:12;;;;;;;8.77;2.88;;;;;;;;;;5072541;28;20531;-69
2021/07/12 02:15:39;;;;;;;5.43;2.90;;;;;;;;;;5072446;28;20170;-69
2021/07/12 02:18:06;;;;;;;5.25;2.38;;;;;;;;;;5072409;28;20021;-70
2021/07/12 02:20:33;;;;;;;6.75;2.88;;;;;;;;;;5072252;28;20123;-70
2021/07/12 02:23:00;;;;;;;5.50;2.90;;;;;;;;;;5072248;28;20021;-70
2021/07/12 02:25:27;;;;;;;3.67;2.40;;;;;;;;;;5072051;28;20481;-70
2021/07/12 02:27:53;;;;;;;5.35;2.88;;;;;;;;;;5072038;28;20032;-70
2021/07/12 02:30:19;;;;;;;4.55;2.88;;;;;;;;;;5072035;28;20381;-69
2021/07/12 02:32:47;;;;;;;6.35;3.20;;;;;;;;;;5072170;28;20385;-69
2021/07/12 02:35:14;;;;;;;6.40;3.08;;;;;;;;;;5072021;28;20016;-70
2021/07/12 02:37:41;;;;;;;5.47;2.80;;;;;;;;;;5072021;28;20138;-69
2021/07/12 02:40:08;;;;;;;7.32;3.13;;;;;;;;;;5071827;28;20385;-69
2021/07/12 02:42:35;;;;;;;6.00;2.90;;;;;;;;;;5071735;28;20063;-69
2021/07/12 02:45:02;;;;;;;4.38;2.70;;;;;;;;;;5071728;28;20020;-69
2021/07/12 02:47:28;;;;;;;7.50;3.10;;;;;;;;;;5071808;28;20020;-69
2021/07/12 02:49:54;;;;;;;5.80;2.88;;;;;;;;;;5070546;28;20029;-70
2021/07/12 02:52:25;;;;;;;5.20;2.47;;;;;;;;;;5070548;28;20406;-70
2021/07/12 02:54:54;;;;;;;5.72;2.67;;;;;;;;;;5071660;28;20025;-70
2021/07/12 02:57:20;;;;;;;6.97;2.85;;;;;;;;;;5071679;28;20027;-70
2021/07/12 02:59:46;;;;;;;5.97;2.60;;;;;;;;;;5071685;28;20066;-70
2021/07/12 03:02:12;;;;;;;5.03;2.83;;;;;;;;;;5071650;28;20060;-69
2021/07/12 03:04:38;;;;;;;4.95;2.60;;;;;;;;;;5071331;28;20024;-69
2021/07/12 03:07:11;;;;;;;6.82;2.50;;;;;;;;;;5071520;28;20020;-70
2021/07/12 03:09:40;;;;;;;5.22;2.53;;;;;;;;;;5070220;28;20021;-70
2021/07/12 03:12:25;;;;;;;7.07;2.70;;;;;;;;;;5071381;28;20031;-69
2021/07/12 03:14:55;;;;;;;4.28;2.80;;;;;;;;;;5070252;28;20555;-69
2021/07/12 03:17:21;;;;;;;3.88;2.40;;;;;;;;;;5071508;28;20107;-69
2021/07/12 03:19:50;;;;;;;5.20;2.40;;;;;;;;;;5071703;28;20085;-69
2021/07/12 03:22:18;;;;;;;4.00;2.53;;;;;;;;;;5070021;28;20488;-69
2021/07/12 03:24:44;;;;;;;5.00;2.80;;;;;;;;;;5069936;28;20397;-69
2021/07/12 03:27:13;;;;;;;8.27;2.20;;;;;;;;;;5069949;28;20024;-69
2021/07/12 03:29:39;;;;;;;5.55;2.38;;;;;;;;;;5070361;28;20530;-70
2021/07/12 03:32:06;;;;;;;4.30;2.40;;;;;;;;;;5071121;28;20047;-70
2021/07/12 03:34:32;;;;;;;4.70;2.28;;;;;;;;;;5069668;28;20021;-69
2021/07/12 03:36:59;;;;;;;5.97;2.38;;;;;;;;;;5071128;28;20021;-70
2021/07/12 03:39:28;;;;;;;4.38;2.53;;;;;;;;;;5069996;28;20116;-69
2021/07/12 03:41:56;;;;;;;5.38;2.42;;;;;;;;;;5069893;28;20035;-70
2021/07/12 03:44:22;;;;;;;6.82;2.60;;;;;;;;;;5071125;28;20099;-68
2021/07/12 03:46:48;;;;;;;4.95;2.22;;;;;;;;;;5070946;28;20099;-69
2021/07/12 03:49:15;;;;;;;3.53;2.22;;;;;;;;;;5071150;28;20078;-68
2021/07/12 03:51:42;;;;;;;4.20;2.28;;;;;;;;;;5071129;28;20056;-69
2021/07/12 03:54:08;;;;;;;4.13;2.22;;;;;;;;;;5071058;28;20031;-69
2021/07/12 03:56:35;;;;;;;3.90;2.22;;;;;;;;;;5071109;28;20025;-70
2021/07/12 03:59:02;;;;;;;4.57;2.53;;;;;;;;;;5071116;28;20019;-70
2021/07/12 04:01:28;;;;;;;6.07;2.42;;;;;;;;;;5071040;28;20066;-70
2021/07/12 04:03:55;;;;;;;5.85;2.40;;;;;;;;;;5071131;28;20025;-70
2021/07/12 04:06:22;;;;;;;4.65;2.50;;;;;;;;;;5071047;28;20086;-70
2021/07/12 04:08:48;;;;;;;3.13;1.88;;;;;;;;;;5070977;28;20107;-70
2021/07/12 04:11:16;;;;;;;4.10;2.15;;;;;;;;;;5071071;28;20049;-69
2021/07/12 04:13:42;;;;;;;5.82;2.30;;;;;;;;;;5070601;28;20051;-70
2021/07/12 04:16:08;;;;;;;5.20;2.25;;;;;;;;;;5072596;28;20035;-70
2021/07/12 04:18:34;;;;;;;3.83;1.95;;;;;;;;;;5074701;28;20025;-70
2021/07/12 04:21:01;;;;;;;7.60;2.65;;;;;;;;;;5074544;28;20463;-70
2021/07/12 04:23:27;;;;;;;6.07;2.42;;;;;;;;;;5074499;28;20024;-70
2021/07/12 04:25:53;;;;;;;5.03;2.72;;;;;;;;;;5073151;28;20032;-69
2021/07/12 04:28:19;;;;;;;4.20;2.20;;;;;;;;;;5074392;28;20056;-69
2021/07/12 04:30:45;;;;;;;4.38;2.10;;;;;;;;;;5073067;28;20028;-70
2021/07/12 04:33:11;;;;;;;5.55;2.60;;;;;;;;;;5074419;28;20376;-69
2021/07/12 04:35:37;;;;;;;4.95;2.53;;;;;;;;;;5074396;28;20085;-68
2021/07/12 04:38:03;;;;;;;5.53;1.88;;;;;;;;;;5074425;28;20021;-69
2021/07/12 04:40:30;;;;;;;4.03;2.17;;;;;;;;;;5074275;28;20066;-68
2021/07/12 04:42:56;;;;;;;3.38;2.00;;;;;;;;;;5074084;28;20031;-70
2021/07/12 04:45:26;;;;;;;3.65;1.92;;;;;;;;;;5073815;28;20111;-69
2021/07/12 04:47:52;;;;;;;3.88;2.17;;;;;;;;;;5074021;28;20028;-70
2021/07/12 04:50:18;;;;;;;4.25;2.03;;;;;;;;;;5074123;28;20024;-69
2021/07/12 04:52:44;;;;;;;4.50;2.05;;;;;;;;;;5074142;28;20032;-69
2021/07/12 04:55:11;;;;;;;5.78;2.30;;;;;;;;;;5074200;28;20123;-69
2021/07/12 04:57:37;;;;;;;3.53;1.83;;;;;;;;;;5073869;28;20100;-69
2021/07/12 05:00:07;;;;;;;5.93;2.22;;;;;;;;;;5072490;28;20035;-69
2021/07/12 05:02:34;;;;;;;5.10;2.42;;;;;;;;;;5073845;28;20032;-68
2021/07/12 05:05:00;;;;;;;4.63;2.10;;;;;;;;;;5072411;28;20568;-69
2021/07/12 05:07:26;;;;;;;3.72;1.90;;;;;;;;;;5073802;28;20385;-69
2021/07/12 05:09:53;;;;;;;3.92;2.10;;;;;;;;;;5073833;28;20020;-68
2021/07/12 05:12:20;;;;;;;4.45;2.03;;;;;;;;;;5073521;28;20056;-70
2021/07/12 05:14:47;;;;;;;4.90;2.10;;;;;;;;;;5072499;28;20501;-70
2021/07/12 05:17:13;;;;;;;3.95;2.10;;;;;;;;;;5072331;28;20622;-70
2021/07/12 05:19:39;;;;;;;4.60;2.20;;;;;;;;;;5073660;28;20465;-69
2021/07/12 05:22:06;;;;;;;7.18;2.47;;;;;;;;;;5072156;28;20500;-70
2021/07/12 05:24:32;;;;;;;4.80;2.25;;;;;;;;;;5072162;28;20035;-69
2021/07/12 05:26:58;;;;;;;4.35;2.10;;;;;;;;;;5073178;28;20017;-69
2021/07/12 05:29:24;;;;;;;4.07;2.15;;;;;;;;;;5072141;28;20119;-70
2021/07/12 05:31:50;;;;;;;4.03;2.10;;;;;;;;;;5073298;28;20043;-69
2021/07/12 05:34:16;;;;;;;6.85;2.03;;;;;;;;;;5071800;28;20458;-69
2021/07/12 05:36:43;;;;;;;4.05;2.22;;;;;;;;;;5073144;28;20021;-70
2021/07/12 05:39:09;;;;;;;5.20;2.20;;;;;;;;;;5073071;28;20020;-69
2021/07/12 05:41:36;;;;;;;3.60;2.05;;;;;;;;;;5073274;28;20041;-69
2021/07/12 05:44:02;;;;;;;5.00;1.95;;;;;;;;;;5073071;28;20468;-70
2021/07/12 05:46:28;;;;;;;5.18;2.05;;;;;;;;;;5072963;28;20031;-68
2021/07/12 05:48:54;;;;;;;9.25;2.25;;;;;;;;;;5073107;28;20103;-69
2021/07/12 05:51:20;;;;;;;3.90;2.20;;;;;;;;;;5072879;28;20028;-69
2021/07/12 05:53:46;;;;;;;4.18;2.00;;;;;;;;;;5072910;28;20021;-70
2021/07/12 05:56:12;;;;;;;5.30;2.05;;;;;;;;;;5071557;28;20102;-70
2021/07/12 05:58:38;;;;;;;3.40;1.98;;;;;;;;;;5072821;28;20103;-70
2021/07/12 06:01:04;;;;;;;3.55;1.95;;;;;;;;;;5072250;28;20039;-70
2021/07/12 06:03:30;;;;;;;4.07;2.00;;;;;;;;;;5072606;28;20404;-69
2021/07/12 06:05:56;;;;;;;3.55;1.90;;;;;;;;;;5071258;28;20033;-70
2021/07/12 06:08:22;;;;;;;2.58;1.75;;;;;;;;;;5072582;28;20009;-69
2021/07/12 06:10:48;;;;;;;4.38;1.85;;;;;;;;;;5072560;28;20079;-70
2021/07/12 06:13:14;;;;;;;4.20;1.75;;;;;;;;;;5067729;28;20501;-69
2021/07/12 06:15:40;;;;;;;2.78;1.65;;;;;;;;;;5051263;28;20024;-70
2021/07/12 06:18:16;;;;;;;5.32;2.28;;;;;;;;;;5052622;28;20056;-70
2021/07/12 06:20:43;;;;;;;5.93;2.22;;;;;;;;;;5052359;28;20025;-69
2021/07/12 06:23:09;;;;;;;3.53;2.10;;;;;;;;;;5052345;28;20033;-70
2021/07/12 06:25:35;;;;;;;4.22;2.38;;;;;;;;;;5050934;28;20025;-70
2021/07/12 06:28:02;;;;;;;5.40;2.20;;;;;;;;;;5052234;28;20032;-70
2021/07/12 06:30:28;;;;;;;4.57;2.20;;;;;;;;;;5052235;28;20096;-68
2021/07/12 06:32:55;;;;;;;5.55;2.30;;;;;;;;;;5052764;28;20017;-70
2021/07/12 06:35:21;;;;;;;6.10;2.13;;;;;;;;;;5052088;28;20532;-70
2021/07/12 06:37:47;;;;;;;3.67;2.03;;;;;;;;;;5051678;28;20029;-69
2021/07/12 06:40:14;;;;;;;4.10;2.10;;;;;;;;;;5051629;28;20048;-68
2021/07/12 06:42:40;;;;;;;4.47;2.50;;;;;;;;;;5050479;28;20381;-70
2021/07/12 06:45:06;;;;;;;3.60;2.00;;;;;;;;;;5050662;28;20106;-69
2021/07/12 06:47:32;;;;;;;3.83;1.88;;;;;;;;;;5051842;28;20075;-69
2021/07/12 06:49:58;;;;;;;4.32;1.88;;;;;;;;;;5051772;28;20029;-69
2021/07/12 06:52:24;;;;;;;3.72;2.15;;;;;;;;;;5051806;28;20017;-70
2021/07/12 06:54:50;;;;;;;4.28;2.25;;;;;;;;;;5051704;28;20021;-70
2021/07/12 06:57:17;;;;;;;6.97;2.22;;;;;;;;;;5051677;28;20017;-69
2021/07/12 06:59:43;;;;;;;3.75;2.20;;;;;;;;;;5051585;28;20478;-69
2021/07/12 07:02:10;;;;;;;5.72;2.35;;;;;;;;;;5051516;28;20501;-69
2021/07/12 07:04:37;;;;;;;4.57;2.47;;;;;;;;;;5051614;28;20017;-70
2021/07/12 07:07:03;;;;;;;4.65;2.20;;;;;;;;;;5051458;28;20029;-69
2021/07/12 07:09:29;;;;;;;5.63;2.22;;;;;;;;;;5051085;28;20363;-70
2021/07/12 07:11:55;;;;;;;4.30;2.40;;;;;;;;;;5051439;28;20538;-69
2021/07/12 07:14:21;;;;;;;4.78;2.33;;;;;;;;;;5070976;28;20052;-70
2021/07/12 07:16:48;;;;;;;5.65;2.58;;;;;;;;;;5070000;28;20025;-70
2021/07/12 07:19:14;;;;;;;5.50;2.50;;;;;;;;;;5071231;28;20491;-69
2021/07/12 07:21:40;;;;;;;4.32;2.22;;;;;;;;;;5071131;28;20169;-70
2021/07/12 07:24:06;;;;;;;4.80;2.50;;;;;;;;;;5071138;28;20029;-70
2021/07/12 07:26:32;;;;;;;5.60;2.35;;;;;;;;;;5071247;28;20024;-70
2021/07/12 07:28:58;;;;;;;5.28;2.47;;;;;;;;;;5071187;28;20024;-69
2021/07/12 07:31:24;;;;;;;3.72;2.28;;;;;;;;;;5071180;28;20028;-70
2021/07/12 07:33:50;;;;;;;4.78;2.47;;;;;;;;;;5071385;28;20068;-69
2021/07/12 07:36:17;;;;;;;5.32;2.78;;;;;;;;;;5069959;28;20028;-69
2021/07/12 07:38:44;;;;;;;4.13;2.35;;;;;;;;;;5071045;28;20047;-70
2021/07/12 07:41:10;;;;;;;3.72;2.10;;;;;;;;;;5069558;28;20481;-70
2021/07/12 07:43:36;;;;;;;3.38;2.13;;;;;;;;;;5071145;28;20150;-69
2021/07/12 07:46:02;;;;;;;4.28;2.22;;;;;;;;;;5071085;28;20024;-69
2021/07/12 07:48:28;;;;;;;4.05;2.33;;;;;;;;;;5070847;28;20082;-71
2021/07/12 07:50:54;;;;;;;5.80;2.40;;;;;;;;;;5074031;28;20029;-71
2021/07/12 07:53:20;;;;;;;6.63;2.15;;;;;;;;;;5073858;28;20465;-69
2021/07/12 07:55:46;;;;;;;4.47;2.20;;;;;;;;;;5075174;28;20074;-70
2021/07/12 07:58:13;;;;;;;3.95;2.40;;;;;;;;;;5075133;28;20021;-70
2021/07/12 08:00:39;;;;;;;5.60;2.88;;;;;;;;;;5074997;28;20114;-69
2021/07/12 08:03:05;;;;;;;6.13;2.38;;;;;;;;;;5074928;28;20508;-70
2021/07/12 08:05:32;;;;;;;5.75;2.50;;;;;;;;;;5073393;28;20021;-70
2021/07/12 08:07:58;;;;;;;5.63;2.85;;;;;;;;;;5074705;28;20503;-70
2021/07/12 08:10:25;;;;;;;5.38;2.35;;;;;;;;;;5074766;28;20048;-70
2021/07/12 08:12:51;;;;;;;5.75;2.67;;;;;;;;;;5074339;28;20043;-70
2021/07/12 08:15:18;;;;;;;5.80;2.67;;;;;;;;;;5074482;28;20554;-70
2021/07/12 08:17:46;;;;;;;4.82;2.60;;;;;;;;;;5074416;28;20016;-69
2021/07/12 08:20:13;;;;;;;3.92;2.30;;;;;;;;;;5074512;28;20056;-71
2021/07/12 08:22:40;;;;;;;7.20;2.55;;;;;;;;;;5073265;28;20025;-70
2021/07/12 08:25:07;;;;;;;6.35;2.60;;;;;;;;;;5074432;28;20099;-70
2021/07/12 08:27:34;;;;;;;5.43;2.67;;;;;;;;;;5074433;28;20021;-69
2021/07/12 08:30:00;;;;;;;7.65;2.88;;;;;;;;;;5074271;28;20024;-70
2021/07/12 08:32:26;;;;;;;4.13;2.60;;;;;;;;;;5074361;28;20424;-69
2021/07/12 08:34:52;;;;;;;4.10;2.30;;;;;;;;;;5074368;28;20029;-69
2021/07/12 08:37:18;;;;;;;3.85;2.55;;;;;;;;;;5074372;28;20021;-70
2021/07/12 08:39:44;;;;;;;5.00;2.33;;;;;;;;;;5074159;28;20017;-70
2021/07/12 08:42:11;;;;;;;6.07;2.40;;;;;;;;;;5072738;28;20064;-70
2021/07/12 08:44:38;;;;;;;4.45;2.38;;;;;;;;;;5073938;28;20031;-70
2021/07/12 08:47:06;;;;;;;4.10;2.63;;;;;;;;;;5073993;28;20523;-70
2021/07/12 08:49:32;;;;;;;5.20;2.67;;;;;;;;;;5072630;28;20024;-69
2021/07/12 08:52:00;;;;;;;4.60;2.50;;;;;;;;;;5074219;28;20377;-69
2021/07/12 08:54:26;;;;;;;4.72;2.42;;;;;;;;;;5074011;28;20443;-69
2021/07/12 08:56:53;;;;;;;5.25;2.42;;;;;;;;;;5073914;28;20016;-70
2021/07/12 08:59:31;;;;;;;5.30;2.72;;;;;;;;;;5073971;28;20021;-70
2021/07/12 09:02:03;;;;;;;4.20;2.60;;;;;;;;;;5073358;28;20032;-70
2021/07/12 09:04:29;;;;;;;4.43;2.53;;;;;;;;;;5072607;28;20029;-69
2021/07/12 09:07:06;;;;;;;6.13;2.97;;;;;;;;;;5073885;28;20036;-70
2021/07/12 09:09:32;;;;;;;5.15;2.95;;;;;;;;;;5073697;28;20048;-71
2021/07/12 09:12:18;;;;;;;6.38;2.55;;;;;;;;;;5073760;28;20066;-70
2021/07/12 09:15:20;;;;;;;4.18;2.33;;;;;;;;;;5055543;28;20041;-69
2021/07/12 09:17:48;;;;;;;5.82;2.85;;;;;;;;;;5030961;28;20026;-69
2021/07/12 09:20:28;;;;;;;4.10;2.75;;;;;;;;;;5048107;28;20245;-70
2021/07/12 09:22:54;;;;;;;5.10;2.50;;;;;;;;;;5073550;28;20031;-70
2021/07/12 09:25:20;;;;;;;4.28;2.45;;;;;;;;;;5073342;28;20017;-69
2021/07/12 09:27:54;;;;;;;6.95;2.90;;;;;;;;;;5073439;28;20103;-70
2021/07/12 09:30:21;;;;;;;4.57;2.90;;;;;;;;;;5073425;28;20032;-70
2021/07/12 09:32:48;;;;;;;4.97;2.78;;;;;;;;;;5073433;28;20017;-69
2021/07/12 09:35:15;;;;;;;5.00;2.72;;;;;;;;;;5073169;28;20051;-71
2021/07/12 09:37:43;;;;;;;8.40;2.80;;;;;;;;;;5073160;28;20024;-71
2021/07/12 09:40:12;;;;;;;4.15;2.60;;;;;;;;;;5073113;28;20033;-70
2021/07/12 09:42:42;;;;;;;6.63;2.92;;;;;;;;;;5071667;28;20025;-70
2021/07/12 09:45:09;;;;;;;4.72;2.80;;;;;;;;;;5072898;28;20024;-69
2021/07/12 09:47:36;;;;;;;4.90;2.95;;;;;;;;;;5073121;28;20082;-70
2021/07/12 09:50:10;;;;;;;5.68;2.67;;;;;;;;;;5073070;28;20017;-71
2021/07/12 09:52:43;;;;;;;6.15;3.20;;;;;;;;;;5072905;28;20540;-70
2021/07/12 09:55:27;;;;;;;4.53;2.55;;;;;;;;;;5071536;28;20020;-70
2021/07/12 09:58:08;;;;;;;5.32;2.80;;;;;;;;;;5072869;28;20031;-71
2021/07/12 10:00:34;;;;;;;4.97;3.08;;;;;;;;;;5071535;28;20058;-71
2021/07/12 10:03:01;;;;;;;4.80;2.90;;;;;;;;;;5072687;28;20541;-69
2021/07/12 10:05:27;;;;;;;4.88;2.80;;;;;;;;;;5072585;28;20021;-70
2021/07/12 10:07:54;;;;;;;4.30;2.75;;;;;;;;;;5072459;28;20048;-71
2021/07/12 10:10:20;;;;;;;6.50;3.47;;;;;;;;;;5072437;28;20019;-70
2021/07/12 10:12:46;;;;;;;5.70;2.90;;;;;;;;;;5071642;28;20040;-70
2021/07/12 10:15:13;;;;;;;6.68;3.30;;;;;;;;;;5072169;28;20023;-71
2021/07/12 10:17:43;;;;;;;4.97;2.90;;;;;;;;;;5072461;28;20045;-71
2021/07/12 10:20:09;;;;;;;4.47;3.08;;;;;;;;;;5072435;28;20500;-69
2021/07/12 10:22:36;;;;;;;6.50;3.22;;;;;;;;;;5072320;28;20036;-70
2021/07/12 10:25:13;;;;;;;5.53;3.08;;;;;;;;;;5072195;28;20023;-70
2021/07/12 10:27:54;;;;;;;4.75;3.05;;;;;;;;;;5072229;28;20024;-70
2021/07/12 10:30:37;;;;;;;6.03;3.28;;;;;;;;;;5072199;28;20025;-70
2021/07/12 10:33:10;;;;;;;5.47;3.15;;;;;;;;;;5070563;28;20111;-69
2021/07/12 10:35:44;;;;;;;4.60;3.00;;;;;;;;;;5071915;28;20021;-70
2021/07/12 10:38:12;;;;;;;6.53;3.13;;;;;;;;;;5071897;28;20053;-70
2021/07/12 10:40:53;;;;;;;7.43;3.47;;;;;;;;;;5070486;28;20020;-69
2021/07/12 10:43:32;;;;;;;4.78;2.85;;;;;;;;;;5071752;28;20116;-70
2021/07/12 10:45:58;;;;;;;5.55;2.92;;;;;;;;;;5071629;28;20020;-70
2021/07/12 10:48:33;;;;;;;5.97;2.90;;;;;;;;;;5071595;28;20067;-70
2021/07/12 10:50:59;;;;;;;5.43;3.35;;;;;;;;;;5070306;28;20504;-69
2021/07/12 10:53:25;;;;;;;5.63;3.28;;;;;;;;;;5071497;28;20029;-70
2021/07/12 10:56:05;;;;;;;5.85;3.15;;;;;;;;;;5071344;28;20021;-71
2021/07/12 10:58:31;;;;;;;5.28;3.10;;;;;;;;;;5071359;28;20026;-70
2021/07/12 11:00:58;;;;;;;4.47;3.05;;;;;;;;;;5071524;28;20393;-71
2021/07/12 11:03:41;;;;;;;4.20;2.95;;;;;;;;;;5071306;28;20016;-71
2021/07/12 11:06:07;;;;;;;6.68;3.05;;;;;;;;;;5071214;28;20028;-70
2021/07/12 11:08:42;;;;;;;5.30;3.08;;;;;;;;;;5071208;28;20031;-70
2021/07/12 11:11:08;;;;;;;4.75;2.75;;;;;;;;;;5071269;28;20024;-69
2021/07/12 11:13:53;;;;;;;6.82;3.30;;;;;;;;;;5069947;28;20064;-70
2021/07/12 11:16:23;;;;;;;4.38;3.13;;;;;;;;;;5071508;28;20028;-70
2021/07/12 11:18:50;;;;;;;4.50;3.00;;;;;;;;;;5070178;28;20074;-70
2021/07/12 11:21:37;;;;;;;5.00;3.15;;;;;;;;;;5069991;28;20384;-69
2021/07/12 11:24:12;;;;;;;5.80;3.38;;;;;;;;;;5053092;28;20020;-71
2021/07/12 11:26:40;;;;;;;5.10;3.17;;;;;;;;;;5071197;28;20027;-71
2021/07/12 11:29:15;;;;;;;4.95;3.40;;;;;;;;;;5071197;28;20020;-71
2021/07/12 11:31:49;;;;;;;6.00;3.10;;;;;;;;;;5071208;28;20024;-70
2021/07/12 11:34:32;;;;;;;5.75;3.20;;;;;;;;;;5071416;28;20032;-70
2021/07/12 11:37:11;;;;;;;5.38;3.10;;;;;;;;;;5069983;28;20481;-70
2021/07/12 11:39:39;;;;;;;5.50;3.30;;;;;;;;;;5070753;28;20031;-68
2021/07/12 11:42:16;;;;;;;5.40;2.80;;;;;;;;;;5069896;28;20392;-71
2021/07/12 11:44:56;;;;;;;5.45;2.83;;;;;;;;;;5071140;28;20017;-70
2021/07/12 11:47:25;;;;;;;6.65;2.88;;;;;;;;;;5069789;28;20027;-70
2021/07/12 11:49:53;;;;;;;6.32;3.05;;;;;;;;;;5069602;28;20020;-70
2021/07/12 11:52:19;;;;;;;5.38;3.55;;;;;;;;;;5070931;28;20017;-70
2021/07/12 11:54:45;;;;;;;5.55;2.90;;;;;;;;;;5070168;28;20405;-70
2021/07/12 11:57:14;;;;;;;6.57;3.85;;;;;;;;;;5071095;28;20016;-69
2021/07/12 11:59:41;;;;;;;4.72;2.92;;;;;;;;;;5069787;28;20025;-71
2021/07/12 12:02:11;;;;;;;5.40;3.03;;;;;;;;;;5070875;28;20037;-69
2021/07/12 12:04:43;;;;;;;5.20;3.20;;;;;;;;;;5070893;28;20359;-70
2021/07/12 12:07:09;;;;;;;;;;;;;;;;;;5070292;28;20481;-69
2021/07/12 12:09:50;;;;;;;6.57;3.03;;;;;;;;;;5070973;28;19905;-68
2021/07/12 12:12:20;;;;;;;5.53;3.45;;;;;;;;;;5069611;28;20469;-70
2021/07/12 12:14:46;;;;;;;6.03;2.90;;;;;;;;;;5069617;28;20097;-70
2021/07/12 12:17:13;;;;;;;6.18;3.28;;;;;;;;;;5070749;28;20017;-70
2021/07/12 12:19:39;;;;;;;5.00;3.40;;;;;;;;;;5070303;28;20050;-71
2021/07/12 12:22:05;;;;;;;5.55;3.50;;;;;;;;;;5070388;28;20051;-70
2021/07/12 12:24:31;;;;;;;4.43;2.80;;;;;;;;;;5070730;28;20024;-71
2021/07/12 12:26:57;;;;;;;5.78;3.25;;;;;;;;;;5069513;28;20434;-71
2021/07/12 12:29:23;;;;;;;5.43;3.10;;;;;;;;;;5070721;28;20024;-69
2021/07/12 12:31:49;;;;;;;4.97;3.53;;;;;;;;;;5070508;28;20031;-70
2021/07/12 12:34:17;;;;;;;4.80;3.05;;;;;;;;;;5070781;28;20497;-71
2021/07/12 12:36:44;;;;;;;5.10;3.60;;;;;;;;;;5071704;28;20028;-70
2021/07/12 12:39:14;;;;;;;8.50;3.70;;;;;;;;;;5074313;28;20501;-69
2021/07/12 12:41:50;;;;;;;6.07;3.00;;;;;;;;;;5074110;28;20074;-70
2021/07/12 12:44:18;;;;;;;4.40;3.05;;;;;;;;;;5074034;28;20048;-71
2021/07/12 12:46:53;;;;;;;7.18;3.40;;;;;;;;;;5074274;28;20032;-70
2021/07/12 12:49:23;;;;;;;5.53;3.38;;;;;;;;;;5074258;28;20420;-69
2021/07/12 12:51:53;;;;;;;5.25;3.25;;;;;;;;;;5074117;28;20035;-70
2021/07/12 12:54:19;;;;;;;4.72;3.38;;;;;;;;;;5074060;28;20031;-69
2021/07/12 12:56:47;;;;;;;5.20;3.03;;;;;;;;;;5073835;28;20028;-70
2021/07/12 12:59:13;;;;;;;5.13;3.10;;;;;;;;;;5072500;28;20024;-71
2021/07/12 13:01:40;;;;;;;5.07;3.30;;;;;;;;;;5073647;28;20058;-69
2021/07/12 13:04:07;;;;;;;5.00;2.95;;;;;;;;;;5073765;28;20098;-71
2021/07/12 13:06:37;;;;;;;6.03;3.10;;;;;;;;;;5072281;28;20036;-69
2021/07/12 13:09:04;;;;;;;5.65;3.45;;;;;;;;;;5073744;28;20019;-70
2021/07/12 13:11:30;;;;;;;6.35;3.35;;;;;;;;;;5073785;28;20020;-71
2021/07/12 13:13:56;;;;;;;5.32;3.20;;;;;;;;;;5073391;28;20497;-68
2021/07/12 13:16:27;;;;;;;5.53;3.55;;;;;;;;;;5073404;28;20036;-70
2021/07/12 13:18:54;;;;;;;5.35;3.80;;;;;;;;;;5073595;28;20020;-70
2021/07/12 13:21:20;;;;;;;4.60;3.25;;;;;;;;;;5073123;28;20554;-70
2021/07/12 13:23:47;;;;;;;5.57;3.63;;;;;;;;;;5072011;28;20025;-70
2021/07/12 13:26:16;;;;;;;5.15;3.47;;;;;;;;;;5073379;28;20021;-69
2021/07/12 13:28:42;;;;;;;6.70;3.40;;;;;;;;;;5072133;28;20109;-71
2021/07/12 13:31:08;;;;;;;5.15;3.20;;;;;;;;;;5073449;28;20021;-71
2021/07/12 13:33:34;;;;;;;7.30;3.67;;;;;;;;;;5073519;28;20025;-71
2021/07/12 13:36:00;;;;;;;4.95;3.22;;;;;;;;;;5071881;28;20025;-70
2021/07/12 13:38:26;;;;;;;5.80;3.70;;;;;;;;;;5072992;28;20108;-68
2021/07/12 13:40:52;;;;;;;6.38;3.60;;;;;;;;;;5072982;28;20377;-70
2021/07/12 13:43:18;;;;;;;7.60;4.05;;;;;;;;;;5071828;28;20024;-68
2021/07/12 13:45:46;;;;;;;5.35;3.60;;;;;;;;;;5071791;28;20095;-71
2021/07/12 13:48:12;;;;;;;6.47;3.80;;;;;;;;;;5072831;28;20489;-70
2021/07/12 13:50:39;;;;;;;5.70;3.40;;;;;;;;;;5072941;28;20028;-69
2021/07/12 13:53:06;;;;;;;6.53;3.88;;;;;;;;;;5073835;28;20420;-71
2021/07/12 13:55:33;;;;;;;6.07;3.92;;;;;;;;;;5072470;28;20036;-70
2021/07/12 13:58:00;;;;;;;6.18;3.55;;;;;;;;;;5072891;28;20024;-70
2021/07/12 14:00:27;;;;;;;5.20;3.60;;;;;;;;;;5072711;28;20052;-70
2021/07/12 14:02:53;;;;;;;6.13;3.60;;;;;;;;;;5073278;28;20098;-70
2021/07/12 14:05:20;;;;;;;6.30;3.53;;;;;;;;;;5071380;28;20025;-70
2021/07/12 14:07:47;;;;;;;6.85;4.03;;;;;;;;;;5072636;28;20388;-71
2021/07/12 14:10:14;;;;;;;4.88;3.47;;;;;;;;;;5072471;28;20012;-71
2021/07/12 14:12:41;;;;;;;7.35;3.80;;;;;;;;;;5072282;28;20044;-71
2021/07/12 14:15:08;;;;;;;5.18;3.55;;;;;;;;;;5072297;28;20024;-71
2021/07/12 14:17:34;;;;;;;8.05;3.78;;;;;;;;;;5072321;28;20526;-71
2021/07/12 14:20:01;;;;;;;5.35;3.80;;;;;;;;;;5072232;28;20115;-70
2021/07/12 14:22:27;;;;;;;6.57;3.75;;;;;;;;;;5072245;28;20036;-71
2021/07/12 14:24:53;;;;;;;5.57;3.75;;;;;;;;;;5072168;28;20020;-70
2021/07/12 14:27:19;;;;;;;11.13;3.83;;;;;;;;;;5072187;28;20052;-71
2021/07/12 14:29:45;;;;;;;6.03;3.40;;;;;;;;;;5072185;28;20503;-70
2021/07/12 14:32:15;;;;;;;6.18;3.95;;;;;;;;;;5072116;28;20024;-69
2021/07/12 14:34:42;;;;;;;5.63;3.63;;;;;;;;;;5071771;28;20024;-71
2021/07/12 14:37:08;;;;;;;5.45;3.63;;;;;;;;;;5072004;28;20021;-71
2021/07/12 14:39:34;;;;;;;5.63;3.70;;;;;;;;;;5070604;28;20024;-70
2021/07/12 14:42:02;;;;;;;5.70;3.80;;;;;;;;;;5071782;28;20032;-70
2021/07/12 14:44:29;;;;;;;5.53;3.50;;;;;;;;;;5072028;28;20489;-71
2021/07/12 14:46:55;;;;;;;5.32;3.75;;;;;;;;;;5071804;28;20028;-71
2021/07/12 14:49:21;;;;;;;8.88;4.28;;;;;;;;;;5071863;28;20401;-70